Time;durP1;ratioP1;P1;durP2;ratioP2;P2;SDS_P1;SDS_P2;PMS_P1;PMS_P2;Temp;Humidity;BMP_temperature;BMP_pressure;BME280_temperature;BME280_humidity;BME280_pressure;Samples;Min_cycle;Max_cycle;Signal;HPM_P1;HPM_P2
2023/05/13 00:01:14;;;;;;;;;19.67;19.00;;;;;-149.00;100.00;66333.84;5102469;27;45255;-75
2023/05/13 00:03:39;;;;;;;;;16.00;14.33;;;;;-149.00;100.00;66333.84;5102609;27;45923;-74
2023/05/13 00:06:05;;;;;;;;;12.00;12.00;;;;;-149.00;100.00;66333.84;5083867;27;45276;-75
2023/05/13 00:08:30;;;;;;;;;14.67;13.67;;;;;-149.00;100.00;66333.84;5102776;27;45337;-75
2023/05/13 00:10:56;;;;;;;;;13.33;12.00;;;;;-149.00;100.00;66333.84;5102276;27;45310;-75
2023/05/13 00:13:21;;;;;;;;;11.00;11.00;;;;;-149.00;100.00;66333.84;5102419;27;45553;-75
2023/05/13 00:15:46;;;;;;;;;10.33;10.33;;;;;-149.00;100.00;66333.84;5083893;27;48046;-75
2023/05/13 00:18:12;;;;;;;;;11.00;11.00;;;;;-149.00;100.00;66333.84;5101830;27;49948;-75
2023/05/13 00:20:37;;;;;;;;;11.67;11.33;;;;;-149.00;100.00;66333.84;5102211;27;45389;-75
2023/05/13 00:23:02;;;;;;;;;11.00;11.00;;;;;-149.00;100.00;66333.84;5100472;27;60685;-75
2023/05/13 00:25:27;;;;;;;;;11.00;11.00;;;;;-149.00;100.00;66333.84;5102078;27;54891;-75
2023/05/13 00:27:53;;;;;;;;;12.33;12.33;;;;;-149.00;100.00;66333.84;5083743;27;49135;-75
2023/05/13 00:30:19;;;;;;;;;11.33;11.33;;;;;-149.00;100.00;66333.84;5101914;27;45345;-75
2023/05/13 00:32:44;;;;;;;;;10.33;10.33;;;;;-149.00;100.00;66333.84;5101996;27;45348;-75
2023/05/13 00:35:10;;;;;;;;;13.67;12.67;;;;;-149.00;100.00;66333.84;5101384;27;56043;-75
2023/05/13 00:37:35;;;;;;;;;12.67;10.00;;;;;-149.00;100.00;66333.84;5102400;27;45289;-75
2023/05/13 00:40:00;;;;;;;;;12.00;12.00;;;;;-149.00;100.00;66333.84;5083309;27;50576;-75
2023/05/13 00:42:26;;;;;;;;;15.00;15.00;;;;;-149.00;100.00;66333.84;5083512;27;46971;-75
2023/05/13 00:44:51;;;;;;;;;13.67;12.67;;;;;-149.00;100.00;66333.84;5101951;27;46680;-75
2023/05/13 00:47:17;;;;;;;;;13.00;11.00;;;;;-149.00;100.00;66333.84;5083410;27;45480;-75
2023/05/13 00:49:42;;;;;;;;;10.33;10.33;;;;;-149.00;100.00;66333.84;5101907;27;45525;-75
2023/05/13 00:52:08;;;;;;;;;13.00;13.00;;;;;-149.00;100.00;66333.84;5083291;27;47527;-75
2023/05/13 00:54:33;;;;;;;;;11.67;11.00;;;;;-149.00;100.00;66333.84;5083303;27;46003;-75
2023/05/13 00:56:59;;;;;;;;;10.67;9.67;;;;;-149.00;100.00;66333.84;5102100;27;45395;-75
2023/05/13 00:59:27;;;;;;;;;12.67;12.33;;;;;-149.00;100.00;66333.84;5101769;27;45508;-75
2023/05/13 01:02:11;;;;;;;;;10.67;10.67;;;;;-149.00;100.00;66333.84;5083047;27;47165;-74
2023/05/13 01:04:57;;;;;;;;;16.33;13.00;;;;;-149.00;100.00;66333.84;5101219;27;45297;-75
2023/05/13 01:07:37;;;;;;;;;11.67;11.67;;;;;-149.00;100.00;66333.84;5101712;27;45341;-75
2023/05/13 01:10:14;;;;;;;;;12.00;12.00;;;;;-149.00;100.00;66333.84;5101595;27;45630;-75
2023/05/13 01:12:42;;;;;;;;;12.00;12.00;;;;;-149.00;100.00;66333.84;5082715;27;47657;-74
2023/05/13 01:15:13;;;;;;;;;12.67;12.33;;;;;-149.00;100.00;66333.84;5101406;27;45393;-74
2023/05/13 01:17:39;;;;;;;;;12.00;12.00;;;;;-149.00;100.00;66333.84;5082826;27;45402;-75
2023/05/13 01:20:05;;;;;;;;;14.67;12.67;;;;;-149.00;100.00;66333.84;5083102;27;46416;-75
2023/05/13 01:22:31;;;;;;;;;15.33;13.67;;;;;-149.00;100.00;66333.84;5082967;27;47238;-75
2023/05/13 01:24:56;;;;;;;;;14.00;13.67;;;;;-149.00;100.00;66333.84;5082835;27;46149;-74
2023/05/13 01:27:22;;;;;;;;;15.00;15.00;;;;;-149.00;100.00;66333.84;5101519;27;45395;-75
2023/05/13 01:29:49;;;;;;;;;9.67;9.67;;;;;-149.00;100.00;66333.84;5079313;28;46927;-75
2023/05/13 01:32:15;;;;;;;;;11.33;10.33;;;;;-149.00;100.00;66333.84;5081378;27;47219;-75
2023/05/13 01:34:41;;;;;;;;;13.00;10.67;;;;;-149.00;100.00;66333.84;5101129;27;45334;-76
2023/05/13 01:37:07;;;;;;;;;12.00;11.33;;;;;-149.00;100.00;66333.84;5080608;27;45505;-75
2023/05/13 01:39:35;;;;;;;;;6.00;6.00;;;;;-149.00;100.00;66333.84;5100963;27;45650;-75
2023/05/13 01:42:00;;;;;;;;;12.00;12.00;;;;;-149.00;100.00;66333.84;5079598;27;48478;-75
2023/05/13 01:44:25;;;;;;;;;12.67;11.67;;;;;-149.00;100.00;66333.84;5079197;28;45281;-75
2023/05/13 01:46:52;;;;;;;;;13.00;13.00;;;;;-149.00;100.00;66333.84;5079320;28;45444;-75
2023/05/13 01:49:17;;;;;;;;;12.67;12.00;;;;;-149.00;100.00;66333.84;5081598;27;46487;-75
2023/05/13 01:51:42;;;;;;;;;11.00;10.00;;;;;-149.00;100.00;66333.84;5100741;27;46203;-75
2023/05/13 01:54:08;;;;;;;;;14.00;14.00;;;;;-149.00;100.00;66333.84;5100765;27;48826;-75
2023/05/13 01:56:33;;;;;;;;;12.67;12.67;;;;;-149.00;100.00;66333.84;5100914;27;45294;-75
2023/05/13 01:58:58;;;;;;;;;16.33;13.33;;;;;-149.00;100.00;66333.84;5101006;27;45301;-75
2023/05/13 02:01:24;;;;;;;;;12.33;12.33;;;;;-149.00;100.00;66333.84;5100375;27;47877;-75
2023/05/13 02:03:49;;;;;;;;;15.00;13.67;;;;;-149.00;100.00;66333.84;5078906;28;45372;-75
2023/05/13 02:06:15;;;;;;;;;14.33;13.00;;;;;-149.00;100.00;66333.84;5081311;27;45333;-76
2023/05/13 02:08:41;;;;;;;;;13.00;12.67;;;;;-149.00;100.00;66333.84;5078873;28;46057;-75
2023/05/13 02:11:06;;;;;;;;;14.00;13.67;;;;;-149.00;100.00;66333.84;5098015;27;46521;-75
2023/05/13 02:13:31;;;;;;;;;16.00;13.33;;;;;-149.00;100.00;66333.84;5078791;28;48688;-75
2023/05/13 02:15:57;;;;;;;;;14.00;13.00;;;;;-149.00;100.00;66333.84;5096936;27;45263;-75
2023/05/13 02:18:22;;;;;;;;;12.33;12.33;;;;;-149.00;100.00;66333.84;5100494;27;45535;-75
2023/05/13 02:20:47;;;;;;;;;13.00;11.33;;;;;-149.00;100.00;66333.84;5100091;27;45197;-75
2023/05/13 02:23:16;;;;;;;;;11.00;10.00;;;;;-149.00;100.00;66333.84;5100310;27;45330;-75
2023/05/13 02:25:42;;;;;;;;;18.00;16.33;;;;;-149.00;100.00;66333.84;5078861;28;45325;-74
2023/05/13 02:28:07;;;;;;;;;15.00;14.00;;;;;-149.00;100.00;66333.84;5098174;27;45472;-75
2023/05/13 02:30:33;;;;;;;;;13.33;13.33;;;;;-149.00;100.00;66333.84;5081546;27;47325;-75
2023/05/13 02:32:59;;;;;;;;;13.00;13.00;;;;;-149.00;100.00;66333.84;5081784;27;46060;-75
2023/05/13 02:35:29;;;;;;;;;17.33;17.33;;;;;-149.00;100.00;66333.84;5091751;27;45809;-74
2023/05/13 02:37:57;;;;;;;;;14.00;13.33;;;;;-149.00;100.00;66333.84;5100238;27;45534;-75
2023/05/13 02:40:23;;;;;;;;;17.33;14.67;;;;;-149.00;100.00;66333.84;5081606;27;47230;-75
2023/05/13 02:42:48;;;;;;;;;13.67;13.33;;;;;-149.00;100.00;66333.84;5099951;27;45240;-75
2023/05/13 02:45:14;;;;;;;;;13.00;13.00;;;;;-149.00;100.00;66333.84;5100450;27;45325;-75
2023/05/13 02:47:39;;;;;;;;;13.67;13.67;;;;;-149.00;100.00;66333.84;5100038;27;45449;-75
2023/05/13 02:50:06;;;;;;;;;13.00;11.33;;;;;-149.00;100.00;66333.84;5099640;27;45594;-74
2023/05/13 02:52:34;;;;;;;;;9.67;9.67;;;;;-149.00;100.00;66333.84;5081845;27;45348;-78
2023/05/13 02:55:00;;;;;;;;;12.00;12.00;;;;;-149.00;100.00;66333.84;5100237;27;45267;-75
2023/05/13 02:57:26;;;;;;;;;12.00;12.00;;;;;-149.00;100.00;66333.84;5081682;27;46269;-75
2023/05/13 02:59:51;;;;;;;;;13.67;13.67;;;;;-149.00;100.00;66333.84;5099907;27;45345;-75
2023/05/13 03:02:16;;;;;;;;;17.67;17.00;;;;;-149.00;100.00;66333.84;5098611;27;45362;-75
2023/05/13 03:04:41;;;;;;;;;12.33;12.33;;;;;-149.00;100.00;66333.84;5100264;27;45270;-75
2023/05/13 03:07:07;;;;;;;;;14.67;14.67;;;;;-149.00;100.00;66333.84;5099450;27;54259;-75
2023/05/13 03:09:33;;;;;;;;;13.00;13.00;;;;;-149.00;100.00;66333.84;5081241;27;47184;-75
2023/05/13 03:11:59;;;;;;;;;11.00;8.00;;;;;-149.00;100.00;66333.84;5100093;27;45338;-75
2023/05/13 03:14:27;;;;;;;;;13.00;11.67;;;;;-149.00;100.00;66333.84;5099946;27;45244;-75
2023/05/13 03:16:52;;;;;;;;;14.67;11.67;;;;;-149.00;100.00;66333.84;5099559;27;45637;-75
2023/05/13 03:19:17;;;;;;;;;14.33;13.33;;;;;-149.00;100.00;66333.84;5099528;27;49313;-75
2023/05/13 03:21:43;;;;;;;;;16.33;15.33;;;;;-149.00;100.00;66333.84;5099455;27;49631;-75
2023/05/13 03:24:08;;;;;;;;;16.00;15.33;;;;;-149.00;100.00;66333.84;5081368;27;45382;-75
2023/05/13 03:26:33;;;;;;;;;13.67;13.67;;;;;-149.00;100.00;66333.84;5099720;27;45321;-75
2023/05/13 03:29:00;;;;;;;;;12.67;12.00;;;;;-149.00;100.00;66333.84;5081128;27;48247;-75
2023/05/13 03:31:26;;;;;;;;;16.00;16.00;;;;;-149.00;100.00;66333.84;5099408;27;45365;-74
2023/05/13 03:33:51;;;;;;;;;15.00;14.33;;;;;-149.00;100.00;66333.84;5100992;27;45452;-75
2023/05/13 03:36:16;;;;;;;;;12.67;12.67;;;;;-149.00;100.00;66333.84;5083877;27;60736;-75
2023/05/13 03:38:42;;;;;;;;;15.00;14.00;;;;;-149.00;100.00;66333.84;5084111;27;60716;-75
2023/05/13 03:41:07;;;;;;;;;16.67;16.67;;;;;-149.00;100.00;66333.84;5103120;27;45278;-75
2023/05/13 03:43:32;;;;;;;;;15.33;14.67;;;;;-149.00;100.00;66333.84;5084758;27;45325;-75
2023/05/13 03:45:58;;;;;;;;;16.67;15.00;;;;;-149.00;100.00;66333.84;5102773;27;45495;-75
2023/05/13 03:48:27;;;;;;;;;18.67;18.00;;;;;-149.00;100.00;66333.84;5084503;27;46555;-74
2023/05/13 03:50:52;;;;;;;;;19.67;19.67;;;;;-149.00;100.00;66333.84;5102299;27;53650;-75
2023/05/13 03:53:18;;;;;;;;;21.33;20.00;;;;;-149.00;100.00;66333.84;5084264;27;45331;-75
2023/05/13 03:55:44;;;;;;;;;26.67;25.67;;;;;-149.00;100.00;66333.84;5084372;27;46059;-75
2023/05/13 03:58:12;;;;;;;;;26.00;26.00;;;;;-149.00;100.00;66333.84;5102778;27;45323;-75
2023/05/13 04:00:37;;;;;;;;;28.33;28.33;;;;;-149.00;100.00;66333.84;5102599;27;45353;-75
2023/05/13 04:03:03;;;;;;;;;29.33;29.00;;;;;-149.00;100.00;66333.84;5102518;27;45228;-74
2023/05/13 04:05:28;;;;;;;;;28.67;27.67;;;;;-149.00;100.00;66333.84;5102604;27;45372;-75
2023/05/13 04:07:53;;;;;;;;;30.00;28.67;;;;;-149.00;100.00;66333.84;5084054;27;48580;-74
2023/05/13 04:10:19;;;;;;;;;27.33;26.00;;;;;-149.00;100.00;66333.84;5102583;27;45341;-75
2023/05/13 04:12:44;;;;;;;;;35.67;31.67;;;;;-149.00;100.00;66333.84;5102549;27;45310;-75
2023/05/13 04:15:09;;;;;;;;;35.00;31.00;;;;;-149.00;100.00;66333.84;5102466;27;45550;-75
2023/05/13 04:17:35;;;;;;;;;32.00;29.67;;;;;-149.00;100.00;66333.84;5083702;27;47799;-75
2023/05/13 04:20:00;;;;;;;;;24.00;23.33;;;;;-149.00;100.00;66333.84;5102418;27;45317;-74
2023/05/13 04:22:25;;;;;;;;;30.33;28.33;;;;;-149.00;100.00;66333.84;5102557;27;45368;-75
2023/05/13 04:24:55;;;;;;;;;30.33;29.67;;;;;-149.00;100.00;66333.84;5102271;27;46121;-75
2023/05/13 04:27:20;;;;;;;;;31.67;27.67;;;;;-149.00;100.00;66333.84;5102309;27;46380;-75
2023/05/13 04:29:46;;;;;;;;;30.67;29.33;;;;;-149.00;100.00;66333.84;5101889;27;45345;-74
2023/05/13 04:32:14;;;;;;;;;25.33;23.33;;;;;-149.00;100.00;66333.84;5081850;27;53572;-75
2023/05/13 04:34:40;;;;;;;;;23.00;23.00;;;;;-149.00;100.00;66333.84;5102183;27;45335;-74
2023/05/13 04:37:05;;;;;;;;;29.00;26.67;;;;;-149.00;100.00;66333.84;5080764;27;47401;-74
2023/05/13 04:39:30;;;;;;;;;29.67;29.00;;;;;-149.00;100.00;66333.84;5101945;27;45345;-74
2023/05/13 04:41:56;;;;;;;;;32.67;31.67;;;;;-149.00;100.00;66333.84;5080394;28;45389;-75
2023/05/13 04:44:21;;;;;;;;;30.00;29.00;;;;;-149.00;100.00;66333.84;5101226;27;49253;-76
2023/05/13 04:46:46;;;;;;;;;34.00;30.00;;;;;-149.00;100.00;66333.84;5101692;27;45408;-75
2023/05/13 04:49:12;;;;;;;;;38.00;33.00;;;;;-149.00;100.00;66333.84;5081948;27;45345;-75
2023/05/13 04:51:37;;;;;;;;;32.33;29.67;;;;;-149.00;100.00;66333.84;5101933;27;45346;-75
2023/05/13 04:54:02;;;;;;;;;37.00;33.00;;;;;-149.00;100.00;66333.84;5080573;27;46416;-75
2023/05/13 04:56:28;;;;;;;;;36.67;32.67;;;;;-149.00;100.00;66333.84;5099525;27;45830;-75
2023/05/13 04:58:53;;;;;;;;;43.00;35.67;;;;;-149.00;100.00;66333.84;5082302;27;45281;-75
2023/05/13 05:01:18;;;;;;;;;41.33;35.00;;;;;-149.00;100.00;66333.84;5101693;27;45305;-76
2023/05/13 05:03:44;;;;;;;;;42.67;35.67;;;;;-149.00;100.00;66333.84;5100966;27;54034;-75
2023/05/13 05:06:09;;;;;;;;;42.33;35.67;;;;;-149.00;100.00;66333.84;5082811;27;47295;-74
2023/05/13 05:08:34;;;;;;;;;42.00;35.33;;;;;-149.00;100.00;66333.84;5067701;28;45869;-74
2023/05/13 05:11:00;;;;;;;;;41.33;35.00;;;;;-149.00;100.00;66333.84;5071525;27;45388;-75
2023/05/13 05:13:25;;;;;;;;;35.67;32.33;;;;;-149.00;100.00;66333.84;5101401;27;45329;-76
2023/05/13 05:15:51;;;;;;;;;41.00;33.67;;;;;-149.00;100.00;66333.84;5082936;27;47032;-77
2023/05/13 05:18:16;;;;;;;;;35.67;32.00;;;;;-149.00;100.00;66333.84;5100916;27;45302;-76
2023/05/13 05:20:41;;;;;;;;;39.33;32.33;;;;;-149.00;100.00;66333.84;5081069;28;45403;-77
2023/05/13 05:23:09;;;;;;;;;41.33;35.00;;;;;-149.00;100.00;66333.84;5080807;28;45441;-77
2023/05/13 05:25:34;;;;;;;;;39.33;34.00;;;;;-149.00;100.00;66333.84;5062788;28;47945;-78
2023/05/13 05:28:00;;;;;;;;;45.00;36.00;;;;;-149.00;100.00;66333.84;5092406;27;45493;-77
2023/05/13 05:30:26;;;;;;;;;40.00;34.67;;;;;-149.00;100.00;66333.84;5101357;27;45447;-78
2023/05/13 05:32:51;;;;;;;;;43.00;36.67;;;;;-149.00;100.00;66333.84;5101020;27;45396;-78
2023/05/13 05:35:18;;;;;;;;;48.00;40.00;;;;;-149.00;100.00;66333.84;5100945;27;46248;-78
2023/05/13 05:37:44;;;;;;;;;46.33;38.67;;;;;-149.00;100.00;66333.84;5101079;27;45325;-77
2023/05/13 05:40:09;;;;;;;;;43.67;36.33;;;;;-149.00;100.00;66333.84;5082355;27;45276;-76
2023/05/13 05:42:35;;;;;;;;;45.67;38.67;;;;;-149.00;100.00;66333.84;5100328;27;45314;-74
2023/05/13 05:45:00;;;;;;;;;47.00;37.67;;;;;-149.00;100.00;66333.84;5100136;27;46135;-75
2023/05/13 05:47:25;;;;;;;;;48.33;40.00;;;;;-149.00;100.00;66333.84;5081702;27;51836;-73
2023/05/13 05:49:51;;;;;;;;;40.33;34.00;;;;;-149.00;100.00;66333.84;5100773;27;45222;-73
2023/05/13 05:52:16;;;;;;;;;44.00;37.33;;;;;-149.00;100.00;66333.84;5100034;27;45318;-74
2023/05/13 05:54:41;;;;;;;;;48.00;40.00;;;;;-149.00;100.00;66333.84;5100508;27;48873;-73
2023/05/13 05:57:06;;;;;;;;;43.67;37.67;;;;;-149.00;100.00;66333.84;5081355;27;45884;-76
2023/05/13 05:59:32;;;;;;;;;49.67;41.67;;;;;-149.00;100.00;66333.84;5100981;27;45329;-76
2023/05/13 06:01:57;;;;;;;;;48.67;40.00;;;;;-149.00;100.00;66333.84;5100577;27;45370;-76
2023/05/13 06:04:23;;;;;;;;;51.33;39.33;;;;;-149.00;100.00;66333.84;5100470;27;52265;-77
2023/05/13 06:06:48;;;;;;;;;46.00;38.33;;;;;-149.00;100.00;66333.84;5098702;27;45749;-76
2023/05/13 06:09:14;;;;;;;;;50.33;42.00;;;;;-149.00;100.00;66333.84;5100677;27;45378;-76
2023/05/13 06:11:39;;;;;;;;;47.33;39.33;;;;;-149.00;100.00;66333.84;5092766;27;45448;-76
2023/05/13 06:14:05;;;;;;;;;48.00;39.00;;;;;-149.00;100.00;66333.84;5061818;28;47345;-75
2023/05/13 06:16:30;;;;;;;;;46.67;39.67;;;;;-149.00;100.00;66333.84;5079643;28;45407;-77
2023/05/13 06:18:56;;;;;;;;;48.67;40.67;;;;;-149.00;100.00;66333.84;5079821;28;45303;-76
2023/05/13 06:21:21;;;;;;;;;51.67;42.67;;;;;-149.00;100.00;66333.84;5079619;28;45384;-75
2023/05/13 06:23:46;;;;;;;;;51.00;42.67;;;;;-149.00;100.00;66333.84;5061128;28;47068;-74
2023/05/13 06:26:11;;;;;;;;;53.75;44.75;;;;;-149.00;100.00;66333.84;5065094;27;55667;-74
2023/05/13 06:28:37;;;;;;;;;50.00;42.67;;;;;-149.00;100.00;66333.84;5099329;27;45378;-74
2023/05/13 06:31:02;;;;;;;;;51.33;42.00;;;;;-149.00;100.00;66333.84;5093628;27;45328;-73
2023/05/13 06:33:27;;;;;;;;;54.75;44.75;;;;;-149.00;100.00;66333.84;5079599;28;45326;-74
2023/05/13 06:35:53;;;;;;;;;48.00;40.00;;;;;-149.00;100.00;66333.84;5084980;27;45310;-74
2023/05/13 06:38:18;;;;;;;;;49.67;41.00;;;;;-149.00;100.00;66333.84;5078162;28;48781;-74
2023/05/13 06:40:44;;;;;;;;;55.75;44.50;;;;;-149.00;100.00;66333.84;5060060;28;47453;-74
2023/05/13 06:43:15;;;;;;;;;51.25;42.25;;;;;-149.00;100.00;66333.84;5078665;28;45507;-74
2023/05/13 06:45:41;;;;;;;;;49.75;40.75;;;;;-149.00;100.00;66333.84;5079455;28;45275;-74
2023/05/13 06:48:07;;;;;;;;;53.00;43.25;;;;;-149.00;100.00;66333.84;5061383;28;45399;-75
2023/05/13 06:50:32;;;;;;;;;54.50;44.00;;;;;-149.00;100.00;66333.84;5084227;27;45337;-75
2023/05/13 06:52:57;;;;;;;;;59.75;47.50;;;;;-149.00;100.00;66333.84;5093683;27;46164;-75
2023/05/13 06:55:23;;;;;;;;;59.50;48.25;;;;;-149.00;100.00;66333.84;5098150;27;51607;-74
2023/05/13 06:57:48;;;;;;;;;52.75;43.50;;;;;-149.00;100.00;66333.84;5081297;27;45399;-75
2023/05/13 07:00:14;;;;;;;;;52.00;42.50;;;;;-149.00;100.00;66333.84;5098950;27;45345;-75
2023/05/13 07:02:40;;;;;;;;;59.50;46.75;;;;;-149.00;100.00;66333.84;5080789;27;47745;-76
2023/05/13 07:05:06;;;;;;;;;54.25;44.00;;;;;-149.00;100.00;66333.84;5099014;27;46484;-75
2023/05/13 07:07:31;;;;;;;;;54.75;44.75;;;;;-149.00;100.00;66333.84;5079856;27;45466;-76
2023/05/13 07:09:57;;;;;;;;;56.00;45.75;;;;;-149.00;100.00;66333.84;5101760;27;51125;-75
2023/05/13 07:12:22;;;;;;;;;55.75;46.75;;;;;-149.00;100.00;66333.84;5090933;27;45411;-74
2023/05/13 07:14:48;;;;;;;;;56.75;46.75;;;;;-149.00;100.00;66333.84;5075567;27;45308;-75
2023/05/13 07:17:13;;;;;;;;;60.50;49.00;;;;;-149.00;100.00;66333.84;5095485;27;45430;-76
2023/05/13 07:19:38;;;;;;;;;60.50;48.00;;;;;-149.00;100.00;66333.84;5077538;27;46184;-75
2023/05/13 07:22:03;;;;;;;;;64.75;52.00;;;;;-149.00;100.00;66333.84;5080677;27;58456;-74
2023/05/13 07:24:29;;;;;;;;;57.75;45.50;;;;;-149.00;100.00;66333.84;5097562;27;45466;-75
2023/05/13 07:26:57;;;;;;;;;63.25;51.50;;;;;-149.00;100.00;66333.84;5097583;27;47280;-75
2023/05/13 07:29:22;;;;;;;;;61.25;48.75;;;;;-149.00;100.00;66333.84;5094744;27;45592;-74
2023/05/13 07:31:47;;;;;;;;;62.00;50.00;;;;;-149.00;100.00;66333.84;5080073;27;56119;-74
2023/05/13 07:34:13;;;;;;;;;61.50;49.75;;;;;-149.00;100.00;66333.84;5095177;27;45508;-75
2023/05/13 07:36:38;;;;;;;;;67.00;54.75;;;;;-149.00;100.00;66333.84;5077537;27;47131;-74
2023/05/13 07:39:03;;;;;;;;;62.75;51.00;;;;;-149.00;100.00;66333.84;5084769;27;52197;-77
2023/05/13 07:41:29;;;;;;;;;60.25;49.25;;;;;-149.00;100.00;66333.84;5076127;28;57167;-73
2023/05/13 07:43:54;;;;;;;;;60.50;49.25;;;;;-149.00;100.00;66333.84;5071149;27;45497;-75
2023/05/13 07:46:19;;;;;;;;;61.75;50.00;;;;;-149.00;100.00;66333.84;5083480;27;45466;-75
2023/05/13 07:48:44;;;;;;;;;64.75;52.00;;;;;-149.00;100.00;66333.84;5090663;27;45532;-75
2023/05/13 07:51:10;;;;;;;;;65.25;53.25;;;;;-149.00;100.00;66333.84;5071451;27;46988;-75
2023/05/13 07:53:35;;;;;;;;;62.25;50.75;;;;;-149.00;100.00;66333.84;5067427;28;45448;-76
2023/05/13 07:56:01;;;;;;;;;62.50;51.00;;;;;-149.00;100.00;66333.84;5093751;27;46065;-76
2023/05/13 07:58:27;;;;;;;;;66.50;56.75;;;;;-149.00;100.00;66333.84;5097752;27;45378;-76
2023/05/13 08:00:52;;;;;;;;;67.50;59.00;;;;;-149.00;100.00;66333.84;5082991;27;47156;-74
2023/05/13 08:03:17;;;;;;;;;68.50;59.50;;;;;-149.00;100.00;66333.84;5098444;27;45492;-75
2023/05/13 08:05:43;;;;;;;;;68.00;56.75;;;;;-149.00;100.00;66333.84;5098342;27;45347;-76
2023/05/13 08:08:08;;;;;;;;;70.75;60.00;;;;;-149.00;100.00;66333.84;5082954;27;46343;-75
2023/05/13 08:10:33;;;;;;;;;65.00;55.00;;;;;-149.00;100.00;66333.84;5101445;27;45339;-75
2023/05/13 08:12:59;;;;;;;;;63.00;50.50;;;;;-149.00;100.00;66333.84;5093520;27;45373;-75
2023/05/13 08:15:26;;;;;;;;;67.50;59.75;;;;;-149.00;100.00;66333.84;5092875;27;45420;-76
2023/05/13 08:17:52;;;;;;;;;63.75;50.50;;;;;-149.00;100.00;66333.84;5105473;27;45361;-75
2023/05/13 08:20:18;;;;;;;;;69.00;58.50;;;;;-149.00;100.00;66333.84;5100604;27;45943;-75
2023/05/13 08:22:43;;;;;;;;;62.25;49.25;;;;;-149.00;100.00;66333.84;5112699;27;45401;-74
2023/05/13 08:25:10;;;;;;;;;67.00;55.25;;;;;-149.00;100.00;66333.84;5086151;27;51047;-74
2023/05/13 08:27:35;;;;;;;;;66.00;53.50;;;;;-149.00;100.00;66333.84;5101708;27;45282;-75
2023/05/13 08:30:01;;;;;;;;;66.00;55.00;;;;;-149.00;100.00;66333.84;5100895;27;45320;-76
2023/05/13 08:32:26;;;;;;;;;69.00;58.50;;;;;-149.00;100.00;66333.84;5076919;27;45602;-76
2023/05/13 08:34:52;;;;;;;;;63.75;51.25;;;;;-149.00;100.00;66333.84;5113091;27;45961;-75
2023/05/13 08:37:17;;;;;;;;;65.25;51.00;;;;;-149.00;100.00;66333.84;5083199;27;47298;-75
2023/05/13 08:39:43;;;;;;;;;70.00;58.50;;;;;-149.00;100.00;66333.84;5078331;27;48109;-75
2023/05/13 08:42:10;;;;;;;;;64.75;53.25;;;;;-149.00;100.00;66333.84;5101204;27;45331;-75
2023/05/13 08:44:38;;;;;;;;;72.75;62.50;;;;;-149.00;100.00;66333.84;5079281;27;45355;-74
2023/05/13 08:47:22;;;;;;;;;66.50;54.50;;;;;-149.00;100.00;66333.84;5060920;28;46360;-76
2023/05/13 08:49:49;;;;;;;;;69.25;54.25;;;;;-149.00;100.00;66333.84;5062271;28;48331;-76
2023/05/13 08:52:16;;;;;;;;;67.25;54.00;;;;;-149.00;100.00;66333.84;5062993;28;45746;-75
2023/05/13 08:54:42;;;;;;;;;63.25;52.00;;;;;-149.00;100.00;66333.84;5063237;28;45252;-76
2023/05/13 08:57:07;;;;;;;;;65.00;52.75;;;;;-149.00;100.00;66333.84;5081110;27;45412;-76
2023/05/13 08:59:33;;;;;;;;;66.25;53.25;;;;;-149.00;100.00;66333.84;5094037;27;49755;-74
2023/05/13 09:02:02;;;;;;;;;69.00;59.25;;;;;-149.00;100.00;66333.84;5082083;27;52981;-75
2023/05/13 09:04:28;;;;;;;;;68.75;57.25;;;;;-149.00;100.00;66333.84;5101323;27;45317;-75
2023/05/13 09:06:53;;;;;;;;;63.50;49.50;;;;;-149.00;100.00;66333.84;5101032;27;45416;-74
2023/05/13 09:09:19;;;;;;;;;66.75;55.75;;;;;-149.00;100.00;66333.84;5082238;27;45334;-76
2023/05/13 09:11:48;;;;;;;;;67.50;57.75;;;;;-149.00;100.00;66333.84;5088290;27;45323;-75
2023/05/13 09:14:18;;;;;;;;;65.75;55.50;;;;;-149.00;100.00;66333.84;5097908;27;45412;-76
2023/05/13 09:16:43;;;;;;;;;61.50;49.75;;;;;-149.00;100.00;66333.84;5081400;27;47170;-74
2023/05/13 09:19:10;;;;;;;;;68.00;59.00;;;;;-149.00;100.00;66333.84;5100188;27;45997;-75
2023/05/13 09:21:36;;;;;;;;;67.25;56.75;;;;;-149.00;100.00;66333.84;5082088;27;45302;-76
2023/05/13 09:24:09;;;;;;;;;65.50;53.50;;;;;-149.00;100.00;66333.84;5100726;27;45567;-72
2023/05/13 09:26:34;;;;;;;;;65.25;52.25;;;;;-149.00;100.00;66333.84;5100547;27;45218;-73
2023/05/13 09:29:23;;;;;;;;;66.00;55.75;;;;;-149.00;100.00;66333.84;5100415;27;45290;-73
2023/05/13 09:31:52;;;;;;;;;59.50;47.75;;;;;-149.00;100.00;66333.84;5099244;27;45448;-73
2023/05/13 09:34:29;;;;;;;;;61.50;49.25;;;;;-149.00;100.00;66333.84;5081484;27;45358;-73
2023/05/13 09:36:59;;;;;;;;;62.75;50.50;;;;;-149.00;100.00;66333.84;5098738;27;45299;-72
2023/05/13 09:39:24;;;;;;;;;63.75;51.00;;;;;-149.00;100.00;66333.84;5082480;27;47451;-75
2023/05/13 09:41:51;;;;;;;;;62.50;49.25;;;;;-149.00;100.00;66333.84;5101086;27;45360;-75
2023/05/13 09:44:16;;;;;;;;;60.25;48.00;;;;;-149.00;100.00;66333.84;5101319;27;45361;-76
2023/05/13 09:46:42;;;;;;;;;59.75;48.25;;;;;-149.00;100.00;66333.84;5100725;27;45369;-72
2023/05/13 09:49:09;;;;;;;;;63.50;52.50;;;;;-149.00;100.00;66333.84;5101010;27;46381;-73
2023/05/13 09:51:34;;;;;;;;;66.75;54.50;;;;;-149.00;100.00;66333.84;5100771;27;45215;-74
2023/05/13 09:54:06;;;;;;;;;65.25;52.75;;;;;-149.00;100.00;66333.84;5082410;27;45235;-73
2023/05/13 09:56:34;;;;;;;;;65.50;51.00;;;;;-149.00;100.00;66333.84;5100837;27;45367;-74
2023/05/13 09:59:01;;;;;;;;;55.25;45.25;;;;;-149.00;100.00;66333.84;5100763;27;46228;-75
2023/05/13 10:01:30;;;;;;;;;63.50;50.00;;;;;-149.00;100.00;66333.84;5100331;27;45301;-74
2023/05/13 10:03:58;;;;;;;;;63.50;51.25;;;;;-149.00;100.00;66333.84;5100887;27;45389;-74
2023/05/13 10:06:25;;;;;;;;;59.25;47.75;;;;;-149.00;100.00;66333.84;5100524;27;45332;-76
2023/05/13 10:08:51;;;;;;;;;59.75;47.50;;;;;-149.00;100.00;66333.84;5100605;27;45321;-76
2023/05/13 10:11:18;;;;;;;;;61.00;49.25;;;;;-149.00;100.00;66333.84;5082019;27;45181;-76
2023/05/13 10:13:49;;;;;;;;;58.00;47.75;;;;;-149.00;100.00;66333.84;5100701;27;45311;-76
2023/05/13 10:16:17;;;;;;;;;52.00;42.00;;;;;-149.00;100.00;66333.84;5100251;27;45234;-76
2023/05/13 10:18:42;;;;;;;;;59.75;48.75;;;;;-149.00;100.00;66333.84;5100480;27;46049;-75
2023/05/13 10:21:08;;;;;;;;;57.67;47.00;;;;;-149.00;100.00;66333.84;5100294;27;45345;-75
2023/05/13 10:23:34;;;;;;;;;57.67;45.67;;;;;-149.00;100.00;66333.84;5081419;27;45456;-74
2023/05/13 10:26:01;;;;;;;;;56.33;46.33;;;;;-149.00;100.00;66333.84;5081379;27;47045;-76
2023/05/13 10:28:28;;;;;;;;;60.25;49.00;;;;;-149.00;100.00;66333.84;5098804;27;45377;-76
2023/05/13 10:30:53;;;;;;;;;55.00;45.00;;;;;-149.00;100.00;66333.84;5095190;27;45329;-78
2023/05/13 10:33:19;;;;;;;;;58.75;47.50;;;;;-149.00;100.00;66333.84;5081906;27;45264;-76
2023/05/13 10:36:06;;;;;;;;;60.00;49.75;;;;;-149.00;100.00;66333.84;5079876;27;45513;-76
2023/05/13 10:39:09;;;;;;;;;61.25;49.25;;;;;-149.00;100.00;66333.84;5079425;28;46260;-76
2023/05/13 10:41:56;;;;;;;;;55.67;44.67;;;;;-149.00;100.00;66333.84;5079720;28;45272;-75
2023/05/13 10:44:23;;;;;;;;;56.33;46.00;;;;;-149.00;100.00;66333.84;5079855;28;45458;-74
2023/05/13 10:46:49;;;;;;;;;57.67;46.33;;;;;-149.00;100.00;66333.84;5079371;28;45276;-75
2023/05/13 10:49:15;;;;;;;;;56.33;44.33;;;;;-149.00;100.00;66333.84;5079519;28;45252;-76
2023/05/13 10:51:45;;;;;;;;;58.50;48.00;;;;;-149.00;100.00;66333.84;5071088;27;45719;-75